Time;durP1;ratioP1;P1;durP2;ratioP2;P2;SDS_P1;SDS_P2;PMS_P1;PMS_P2;Temp;Humidity;BMP_temperature;BMP_pressure;BME280_temperature;BME280_humidity;BME280_pressure;Samples;Min_cycle;Max_cycle;Signal;HPM_P1;HPM_P2
2023/06/23 00:00:22;;;;;;;60.85;34.28;;;;;;;17.87;100.00;100608.47;7397764;19;20026;-65
2023/06/23 00:02:51;;;;;;;61.05;34.17;;;;;;;17.83;100.00;100609.56;7399689;19;20051;-65
2023/06/23 00:05:19;;;;;;;46.95;28.85;;;;;;;17.79;100.00;100602.72;7397360;19;20443;-66
2023/06/23 00:07:48;;;;;;;66.93;35.15;;;;;;;17.74;100.00;100601.19;7400168;19;20035;-65
2023/06/23 00:10:17;;;;;;;76.47;39.15;;;;;;;17.74;100.00;100592.34;7400042;19;20078;-65
2023/06/23 00:12:45;;;;;;;69.03;35.28;;;;;;;17.72;100.00;100584.47;7399443;19;20493;-65
2023/06/23 00:15:18;;;;;;;74.32;36.60;;;;;;;17.71;100.00;100574.78;7399879;19;20417;-66
2023/06/23 00:17:50;;;;;;;69.60;34.80;;;;;;;17.71;100.00;100569.50;7397905;19;20039;-66
2023/06/23 00:20:19;;;;;;;81.65;38.13;;;;;;;17.73;100.00;100575.56;7397374;19;20025;-66
2023/06/23 00:22:47;;;;;;;59.72;33.33;;;;;;;17.71;100.00;100581.91;7399507;19;20022;-65
2023/06/23 00:25:16;;;;;;;75.30;36.88;;;;;;;17.72;100.00;100589.78;7397773;19;20014;-65
2023/06/23 00:27:46;;;;;;;72.32;37.53;;;;;;;17.72;100.00;100599.53;7396780;19;20485;-66
2023/06/23 00:30:17;;;;;;;87.63;40.28;;;;;;;17.74;100.00;100606.47;7399377;19;20043;-66
2023/06/23 00:32:46;;;;;;;73.72;38.03;;;;;;;17.76;100.00;100635.59;7399082;19;20035;-66
2023/06/23 00:35:15;;;;;;;77.95;37.45;;;;;;;17.78;100.00;100664.69;7396514;19;20082;-66
2023/06/23 00:37:45;;;;;;;70.97;35.28;;;;;;;17.77;100.00;100670.91;7396496;19;20486;-66
2023/06/23 00:40:15;;;;;;;61.15;33.95;;;;;;;17.69;100.00;100685.47;7396977;19;20162;-66
2023/06/23 00:42:53;;;;;;;58.63;31.13;;;;;;;17.59;100.00;100674.47;7397079;19;20018;-66
2023/06/23 00:45:25;;;;;;;65.05;33.28;;;;;;;17.53;100.00;100666.00;7398587;19;20019;-66
2023/06/23 00:47:54;;;;;;;76.60;34.38;;;;;;;17.47;100.00;100661.84;7399282;19;20010;-66
2023/06/23 00:50:24;;;;;;;92.57;41.67;;;;;;;17.46;100.00;100643.38;7396161;19;20502;-66
2023/06/23 00:52:54;;;;;;;97.50;43.70;;;;;;;17.48;100.00;100634.38;7398597;19;20018;-66
2023/06/23 00:55:24;;;;;;;95.38;44.08;;;;;;;17.51;100.00;100636.88;7398594;19;20082;-66
2023/06/23 00:57:54;;;;;;;110.32;46.70;;;;;;;17.55;100.00;100650.84;7398520;19;20019;-66
2023/06/23 01:00:27;;;;;;;104.35;45.72;;;;;;;17.58;100.00;100661.31;7396020;19;20426;-66
2023/06/23 01:02:59;;;;;;;102.88;44.67;;;;;;;17.61;100.00;100665.59;7398495;19;20036;-66
2023/06/23 01:05:31;;;;;;;97.35;45.80;;;;;;;17.63;100.00;100669.88;7396700;19;20030;-66
2023/06/23 01:08:13;;;;;;;94.00;43.50;;;;;;;17.64;100.00;100681.31;7397854;19;20027;-66
2023/06/23 01:10:48;;;;;;;98.75;44.38;;;;;;;17.64;100.00;100682.19;7398533;19;20018;-66
2023/06/23 01:13:23;;;;;;;92.13;43.72;;;;;;;17.64;100.00;100678.66;7397007;19;20035;-64
2023/06/23 01:16:00;;;;;;;93.45;43.88;;;;;;;17.62;100.00;100672.59;7396371;19;20015;-65
2023/06/23 01:18:38;;;;;;;110.60;48.40;;;;;;;17.61;100.00;100660.28;7396176;19;20035;-65
2023/06/23 01:21:11;;;;;;;105.55;46.90;;;;;;;17.61;100.00;100642.56;7398196;19;20014;-64
2023/06/23 01:24:00;;;;;;;104.73;45.70;;;;;;;17.62;100.00;100631.00;7395657;19;20374;-65
2023/06/23 01:26:51;;;;;;;97.25;46.05;;;;;;;17.64;100.00;100638.88;7397933;19;20421;-65
2023/06/23 01:29:28;;;;;;;112.55;46.20;;;;;;;17.64;100.00;100638.88;7397877;19;20038;-64
2023/06/23 01:32:03;;;;;;;98.28;44.90;;;;;;;17.61;100.00;100626.63;7395998;19;20018;-65
2023/06/23 01:34:39;;;;;;;96.80;46.03;;;;;;;17.55;100.00;100616.34;7395190;19;20010;-64
2023/06/23 01:37:13;;;;;;;104.40;47.05;;;;;;;17.52;100.00;100603.25;7395540;19;20021;-65
2023/06/23 01:39:45;;;;;;;114.20;50.95;;;;;;;17.51;100.00;100581.16;7396555;19;20019;-65
2023/06/23 01:42:18;;;;;;;101.78;48.38;;;;;;;17.51;100.00;100573.22;7396958;19;20513;-65
2023/06/23 01:44:54;;;;;;;115.60;52.35;;;;;;;17.52;100.00;100542.25;7394851;19;20376;-64
2023/06/23 01:47:29;;;;;;;111.05;50.00;;;;;;;17.53;100.00;100530.72;7397298;19;20010;-65
2023/06/23 01:50:00;;;;;;;99.13;48.13;;;;;;;17.54;100.00;100520.03;7396489;19;20015;-65
2023/06/23 01:52:38;;;;;;;111.82;50.80;;;;;;;17.55;100.00;100512.91;7396726;19;20361;-65
2023/06/23 01:55:08;;;;;;;99.43;46.88;;;;;;;17.51;100.00;100517.50;7396719;19;20031;-65
2023/06/23 01:57:40;;;;;;;91.80;44.85;;;;;;;17.51;100.00;100532.59;7397020;19;20015;-65
2023/06/23 02:00:19;;;;;;;100.32;47.17;;;;;;;17.49;100.00;100535.31;7395703;19;20031;-65
2023/06/23 02:02:50;;;;;;;100.20;45.90;;;;;;;17.49;100.00;100532.69;7395880;19;20014;-65
2023/06/23 02:05:22;;;;;;;92.60;44.35;;;;;;;17.50;100.00;100546.78;7397137;19;20375;-65
2023/06/23 02:07:52;;;;;;;106.35;47.03;;;;;;;17.50;100.00;100536.19;7397780;19;20031;-66
2023/06/23 02:10:24;;;;;;;96.00;45.05;;;;;;;17.50;100.00;100536.19;7396287;19;20011;-65
2023/06/23 02:12:56;;;;;;;86.55;42.10;;;;;;;17.48;100.00;100528.31;7394595;19;20014;-64
2023/06/23 02:15:29;;;;;;;88.40;43.20;;;;;;;17.47;100.00;100512.47;7396250;19;20019;-65
2023/06/23 02:17:58;;;;;;;107.25;46.42;;;;;;;17.43;100.00;100507.31;7394587;19;20064;-65
2023/06/23 02:20:28;;;;;;;113.07;47.80;;;;;;;17.43;100.00;100498.53;7394357;19;20014;-65
2023/06/23 02:22:59;;;;;;;102.93;45.53;;;;;;;17.45;100.00;100498.44;7395348;19;20024;-64
2023/06/23 02:25:28;;;;;;;115.47;49.05;;;;;;;17.46;100.00;100505.47;7394413;19;20023;-64
2023/06/23 02:27:57;;;;;;;106.78;48.20;;;;;;;17.46;100.00;100519.56;7395083;19;20435;-64
2023/06/23 02:30:29;;;;;;;102.47;46.83;;;;;;;17.48;100.00;100512.41;7395376;19;20019;-64
2023/06/23 02:32:58;;;;;;;93.07;44.95;;;;;;;17.50;100.00;100514.97;7395137;19;20015;-65
2023/06/23 02:35:27;;;;;;;108.75;47.63;;;;;;;17.51;100.00;100519.31;7394997;19;20014;-64
2023/06/23 02:37:58;;;;;;;113.60;50.25;;;;;;;17.52;100.00;100531.66;7394660;19;20035;-65
2023/06/23 02:40:29;;;;;;;112.60;49.78;;;;;;;17.54;100.00;100529.75;7393519;19;20416;-65
2023/06/23 02:43:05;;;;;;;109.72;50.10;;;;;;;17.54;100.00;100533.28;7395417;19;20024;-65
2023/06/23 02:45:40;;;;;;;117.55;51.03;;;;;;;17.57;100.00;100532.25;7395575;19;20021;-65
2023/06/23 02:48:15;;;;;;;127.57;53.05;;;;;;;17.56;100.00;100528.72;7401015;19;20035;-65
2023/06/23 02:50:46;;;;;;;116.43;50.55;;;;;;;17.57;100.00;100526.94;7402399;19;20511;-65
2023/06/23 02:53:23;;;;;;;109.90;49.53;;;;;;;17.57;100.00;100533.09;7401867;19;20027;-65
2023/06/23 02:56:00;;;;;;;104.65;48.17;;;;;;;17.57;100.00;100535.75;7402838;19;20042;-65
2023/06/23 02:58:30;;;;;;;115.00;49.38;;;;;;;17.57;100.00;100541.06;7402745;19;20015;-65
2023/06/23 03:01:04;;;;;;;108.07;47.80;;;;;;;17.59;100.00;100551.56;7400036;19;20022;-65
2023/06/23 03:03:35;;;;;;;104.25;47.05;;;;;;;17.59;100.00;100560.41;7401317;19;20046;-65
2023/06/23 03:06:03;;;;;;;96.78;44.28;;;;;;;17.58;100.00;100568.47;7402271;19;20035;-65
2023/06/23 03:08:32;;;;;;;98.28;46.17;;;;;;;17.57;100.00;100580.00;7399066;19;20022;-65
2023/06/23 03:11:01;;;;;;;106.43;47.70;;;;;;;17.57;100.00;100585.31;7401748;19;20032;-65
2023/06/23 03:13:29;;;;;;;118.05;50.35;;;;;;;17.57;100.00;100587.97;7401122;19;20031;-65
2023/06/23 03:16:08;;;;;;;113.65;49.35;;;;;;;17.56;100.00;100584.44;7399120;19;20022;-65
2023/06/23 03:18:40;;;;;;;108.45;47.10;;;;;;;17.57;100.00;100577.34;7401812;19;20027;-65
2023/06/23 03:21:11;;;;;;;103.55;45.47;;;;;;;17.56;100.00;100586.25;7399458;19;20022;-65
2023/06/23 03:23:41;;;;;;;96.30;42.22;;;;;;;17.54;100.00;100585.44;7398395;19;20018;-65
2023/06/23 03:26:13;;;;;;;93.80;41.97;;;;;;;17.54;100.00;100593.41;7401048;19;20019;-65
2023/06/23 03:28:45;;;;;;;96.07;43.60;;;;;;;17.51;100.00;100601.53;7400998;19;20431;-65
2023/06/23 03:31:18;;;;;;;84.63;40.50;;;;;;;17.52;100.00;100597.97;7401708;19;20029;-65
2023/06/23 03:33:56;;;;;;;85.68;39.30;;;;;;;17.51;100.00;100591.78;7399014;19;20010;-65
2023/06/23 03:36:31;;;;;;;87.63;41.22;;;;;;;17.50;100.00;100595.41;7401150;19;20090;-65
2023/06/23 03:39:04;;;;;;;103.85;46.35;;;;;;;17.48;100.00;100601.69;7400739;19;20098;-65
2023/06/23 03:41:35;;;;;;;107.35;46.67;;;;;;;17.48;100.00;100613.19;7401309;19;20074;-65
2023/06/23 03:44:11;;;;;;;92.68;43.65;;;;;;;17.47;100.00;100615.91;7399128;19;20074;-64
2023/06/23 03:46:49;;;;;;;122.13;50.88;;;;;;;17.45;100.00;100607.16;7401020;19;20070;-64
2023/06/23 03:49:19;;;;;;;112.07;47.50;;;;;;;17.43;100.00;100616.06;7400267;19;20074;-64
2023/06/23 03:51:50;;;;;;;117.00;50.92;;;;;;;17.45;100.00;100612.47;7400265;19;20106;-65
2023/06/23 03:54:20;;;;;;;115.55;48.65;;;;;;;17.45;100.00;100615.97;7398738;19;20022;-64
2023/06/23 03:56:49;;;;;;;103.07;47.33;;;;;;;17.45;100.00;100623.09;7399890;19;20429;-64
2023/06/23 03:59:19;;;;;;;93.78;44.70;;;;;;;17.44;100.00;100619.59;7398077;19;20098;-65
2023/06/23 04:01:51;;;;;;;106.63;47.28;;;;;;;17.45;100.00;100620.44;7397822;19;20014;-66
2023/06/23 04:04:23;;;;;;;97.45;44.83;;;;;;;17.48;100.00;100622.91;7398612;19;20070;-65
2023/06/23 04:06:54;;;;;;;93.88;44.05;;;;;;;17.48;100.00;100626.44;7400792;19;20343;-65
2023/06/23 04:09:23;;;;;;;88.18;43.55;;;;;;;17.50;100.00;100634.31;7397358;19;20542;-64
2023/06/23 04:11:53;;;;;;;90.75;43.13;;;;;;;17.53;100.00;100634.16;7399563;19;20493;-64
2023/06/23 04:14:23;;;;;;;108.93;46.25;;;;;;;17.52;100.00;100635.94;7397366;19;20093;-64
2023/06/23 04:16:56;;;;;;;110.15;48.80;;;;;;;17.56;100.00;100639.28;7399419;19;20074;-65
2023/06/23 04:19:30;;;;;;;97.32;44.38;;;;;;;17.57;100.00;100636.53;7400090;19;20021;-64
2023/06/23 04:22:00;;;;;;;95.15;41.90;;;;;;;17.60;100.00;100632.88;7399748;19;20078;-64
2023/06/23 04:24:30;;;;;;;85.82;41.42;;;;;;;17.63;100.00;100638.03;7399776;19;20028;-64
2023/06/23 04:27:01;;;;;;;104.43;42.63;;;;;;;17.65;100.00;100640.59;7401871;19;20039;-64
2023/06/23 04:29:30;;;;;;;95.88;41.97;;;;;;;17.66;100.00;100647.63;7400455;19;20023;-64
2023/06/23 04:32:02;;;;;;;78.35;38.10;;;;;;;17.68;100.00;100656.34;7397008;19;20015;-64
2023/06/23 04:34:31;;;;;;;87.80;38.92;;;;;;;17.69;100.00;100647.44;7396242;19;20018;-64
2023/06/23 04:37:08;;;;;;;87.07;37.85;;;;;;;17.69;100.00;100645.66;7398671;19;20082;-64
2023/06/23 04:39:46;;;;;;;81.32;39.05;;;;;;;17.69;100.00;100637.72;7398589;19;20500;-65
2023/06/23 04:42:18;;;;;;;86.03;38.42;;;;;;;17.71;100.00;100638.47;7399439;19;20082;-65
2023/06/23 04:44:52;;;;;;;79.13;38.42;;;;;;;17.72;100.00;100642.00;7396344;19;20439;-65
2023/06/23 04:47:28;;;;;;;86.55;40.25;;;;;;;17.73;100.00;100635.72;7399256;19;20082;-65
2023/06/23 04:50:01;;;;;;;80.40;37.88;;;;;;;17.73;100.00;100630.41;7397468;19;20022;-65
2023/06/23 04:52:34;;;;;;;95.32;41.17;;;;;;;17.71;100.00;100630.50;7398366;19;20082;-65
2023/06/23 04:55:06;;;;;;;88.03;39.13;;;;;;;17.72;100.00;100636.69;7396362;19;20022;-64
2023/06/23 04:57:39;;;;;;;103.55;42.10;;;;;;;17.71;100.00;100641.13;7395698;19;20022;-65
2023/06/23 05:00:11;;;;;;;83.63;39.40;;;;;;;17.70;100.00;100641.22;7397136;19;20157;-65
2023/06/23 05:02:43;;;;;;;86.47;39.07;;;;;;;17.68;100.00;100637.78;7397407;19;20025;-65
2023/06/23 05:05:14;;;;;;;90.22;40.53;;;;;;;17.67;100.00;100647.53;7396720;19;20504;-64
2023/06/23 05:07:44;;;;;;;87.35;40.75;;;;;;;17.67;100.00;100639.56;7393631;19;20017;-66
2023/06/23 05:10:14;;;;;;;110.72;46.05;;;;;;;17.65;100.00;100633.50;7394609;19;20098;-65
2023/06/23 05:12:45;;;;;;;90.55;42.97;;;;;;;17.66;100.00;100631.72;7397228;19;20379;-64
2023/06/23 05:15:14;;;;;;;122.38;53.63;;;;;;;17.64;100.00;100637.09;7395439;19;20011;-64
2023/06/23 05:17:47;;;;;;;100.75;45.88;;;;;;;17.63;100.00;100635.38;7395905;19;20410;-64
2023/06/23 05:20:19;;;;;;;105.63;45.22;;;;;;;17.64;100.00;100642.41;7394810;19;20026;-65
2023/06/23 05:22:50;;;;;;;93.72;43.45;;;;;;;17.63;100.00;100632.72;7394049;19;20086;-64
2023/06/23 05:25:23;;;;;;;110.60;46.40;;;;;;;17.63;100.00;100643.34;7394515;19;20481;-64
2023/06/23 05:27:57;;;;;;;111.63;47.75;;;;;;;17.65;100.00;100640.59;7394560;19;20059;-64
2023/06/23 05:30:26;;;;;;;107.18;46.08;;;;;;;17.65;100.00;100638.78;7395243;19;20506;-64
2023/06/23 05:33:00;;;;;;;100.55;45.05;;;;;;;17.65;100.00;100646.75;7396599;19;20022;-64
2023/06/23 05:35:29;;;;;;;;;;;;;;;17.64;100.00;100638.88;7394852;19;20014;-64
2023/06/23 05:38:00;;;;;;;111.25;46.33;;;;;;;17.62;100.00;100635.47;7394332;19;20402;-64
2023/06/23 05:40:28;;;;;;;128.18;51.08;;;;;;;17.59;100.00;100637.34;7394308;19;20419;-64
2023/06/23 05:42:57;;;;;;;115.50;49.33;;;;;;;17.57;100.00;100639.19;7395981;19;20549;-64
2023/06/23 05:45:25;;;;;;;128.82;51.53;;;;;;;17.57;100.00;100639.19;7394489;19;20419;-65
2023/06/23 05:48:03;;;;;;;112.25;50.17;;;;;;;17.58;100.00;100634.78;7394684;19;20082;-64
2023/06/23 05:50:36;;;;;;;127.68;52.50;;;;;;;17.58;100.00;100637.44;7396817;19;20081;-65
2023/06/23 05:53:11;;;;;;;138.95;54.63;;;;;;;17.59;100.00;100636.47;7394854;19;20034;-65
2023/06/23 05:55:44;;;;;;;111.75;48.92;;;;;;;17.59;100.00;100636.47;7396514;19;20026;-64
2023/06/23 05:58:16;;;;;;;138.65;54.17;;;;;;;17.59;100.00;100642.66;7396096;19;20501;-65
2023/06/23 06:00:49;;;;;;;125.15;53.00;;;;;;;17.61;100.00;100644.38;7395816;19;20078;-65
2023/06/23 06:03:23;;;;;;;124.28;52.33;;;;;;;17.63;100.00;100640.69;7394449;19;20074;-65
2023/06/23 06:05:56;;;;;;;110.90;49.25;;;;;;;17.66;100.00;100637.00;7394390;19;20073;-64
2023/06/23 06:08:28;;;;;;;118.80;52.13;;;;;;;17.66;100.00;100634.38;7396347;19;20078;-65
2023/06/23 06:10:58;;;;;;;126.25;52.38;;;;;;;17.68;100.00;100637.78;7394165;19;20082;-64
2023/06/23 06:13:29;;;;;;;119.47;52.25;;;;;;;17.70;100.00;100646.53;7395669;19;20147;-65
2023/06/23 06:15:58;;;;;;;123.70;52.17;;;;;;;17.71;100.00;100642.94;7396101;19;20410;-65
2023/06/23 06:18:30;;;;;;;122.88;53.65;;;;;;;17.70;100.00;100644.72;7393707;19;20365;-65
2023/06/23 06:21:01;;;;;;;126.80;51.97;;;;;;;17.69;100.00;100642.16;7394640;19;20086;-65
2023/06/23 06:23:31;;;;;;;116.22;49.63;;;;;;;17.68;100.00;100651.03;7393485;19;20019;-65
2023/06/23 06:26:01;;;;;;;129.20;53.80;;;;;;;17.67;100.00;100649.34;7395805;19;20078;-65
2023/06/23 06:28:30;;;;;;;128.45;53.53;;;;;;;17.68;100.00;100648.38;7394667;19;20099;-65
2023/06/23 06:31:00;;;;;;;115.47;50.35;;;;;;;17.67;100.00;100641.38;7394628;19;20035;-65
2023/06/23 06:33:32;;;;;;;124.50;52.78;;;;;;;17.65;100.00;100641.44;7392341;19;20078;-65
2023/06/23 06:36:04;;;;;;;123.35;52.10;;;;;;;17.63;100.00;100648.66;7392732;19;20015;-65
2023/06/23 06:38:37;;;;;;;131.75;55.97;;;;;;;17.64;100.00;100647.72;7395628;19;20018;-65
2023/06/23 06:41:06;;;;;;;142.23;57.20;;;;;;;17.64;100.00;100650.38;7394692;19;20014;-65
2023/06/23 06:43:35;;;;;;;118.82;54.17;;;;;;;17.65;100.00;100641.44;7393803;19;20470;-65
2023/06/23 06:46:06;;;;;;;141.25;58.67;;;;;;;17.68;100.00;100648.38;7392408;19;20035;-65
2023/06/23 06:48:39;;;;;;;135.20;57.28;;;;;;;17.70;100.00;100649.16;7395121;19;20025;-65
2023/06/23 06:51:08;;;;;;;133.57;58.75;;;;;;;17.71;100.00;100649.09;7394826;19;20078;-65
2023/06/23 06:53:38;;;;;;;124.47;56.08;;;;;;;17.73;100.00;100655.19;7394137;19;20474;-65
2023/06/23 06:56:08;;;;;;;130.95;57.72;;;;;;;17.74;100.00;100651.59;7392636;19;20022;-65
2023/06/23 06:58:38;;;;;;;138.27;62.40;;;;;;;17.79;100.00;100653.13;7395017;19;20070;-65
2023/06/23 07:01:07;;;;;;;155.40;67.30;;;;;;;17.80;100.00;100645.09;7394737;19;20022;-65
2023/06/23 07:03:41;;;;;;;152.40;66.05;;;;;;;17.84;100.00;100645.78;7393654;19;20094;-65
2023/06/23 07:06:09;;;;;;;153.63;68.50;;;;;;;17.86;100.00;100659.84;7394364;19;20038;-65
2023/06/23 07:08:38;;;;;;;165.60;70.35;;;;;;;17.89;100.00;100643.72;7393777;19;20022;-65
2023/06/23 07:11:06;;;;;;;155.00;70.70;;;;;;;17.91;100.00;100650.66;7391709;19;20010;-65
2023/06/23 07:13:35;;;;;;;164.00;71.07;;;;;;;17.94;100.00;100660.28;7393222;19;20035;-65
2023/06/23 07:16:03;;;;;;;140.30;64.20;;;;;;;17.96;100.00;100655.78;7393482;19;20018;-64
2023/06/23 07:18:32;;;;;;;146.25;66.00;;;;;;;17.97;100.00;100653.97;7393503;19;20422;-64
2023/06/23 07:21:04;;;;;;;133.00;66.00;;;;;;;17.98;100.00;100661.84;7393178;19;20014;-64
2023/06/23 07:23:33;;;;;;;123.93;60.33;;;;;;;17.99;100.00;100654.75;7391171;19;20042;-64
2023/06/23 07:26:01;;;;;;;136.43;60.85;;;;;;;17.98;100.00;100661.84;7393283;19;20048;-65
2023/06/23 07:28:30;;;;;;;140.52;62.50;;;;;;;17.97;100.00;100660.16;7391536;19;20082;-64
2023/06/23 07:30:58;;;;;;;140.23;60.60;;;;;;;17.98;100.00;100667.16;7393300;19;20164;-64
2023/06/23 07:33:27;;;;;;;126.53;58.85;;;;;;;17.98;100.00;100669.78;7393856;19;20018;-64
2023/06/23 07:36:02;;;;;;;129.20;59.17;;;;;;;17.96;100.00;100671.69;7395971;19;20031;-65
2023/06/23 07:38:33;;;;;;;125.95;55.22;;;;;;;17.96;100.00;100673.47;7399844;19;20098;-64
2023/06/23 07:41:01;;;;;;;117.13;56.17;;;;;;;17.93;100.00;100674.47;7399703;19;20070;-65
2023/06/23 07:43:30;;;;;;;118.75;55.75;;;;;;;17.93;100.00;100677.13;7397155;19;20494;-66
2023/06/23 07:45:58;;;;;;;125.95;58.22;;;;;;;17.94;100.00;100684.19;7398054;19;20090;-65
2023/06/23 07:48:26;;;;;;;128.93;56.72;;;;;;;17.96;100.00;100692.06;7400144;19;20082;-65
2023/06/23 07:50:55;;;;;;;114.40;52.55;;;;;;;17.96;100.00;100684.09;7400466;19;20082;-65
2023/06/23 07:53:23;;;;;;;109.40;52.78;;;;;;;17.95;100.00;100691.22;7399246;19;20031;-65
2023/06/23 07:55:55;;;;;;;110.50;53.15;;;;;;;17.97;100.00;100683.16;7399854;19;20081;-65
2023/06/23 07:58:23;;;;;;;125.55;54.80;;;;;;;17.97;100.00;100684.03;7397101;19;20018;-65
2023/06/23 08:00:53;;;;;;;116.88;54.67;;;;;;;18.01;100.00;100688.22;7399300;19;20431;-65
2023/06/23 08:03:21;;;;;;;105.78;50.78;;;;;;;18.03;100.00;100688.13;7398500;19;20014;-67
2023/06/23 08:05:50;;;;;;;106.30;49.60;;;;;;;18.05;100.00;100679.16;7399060;19;20094;-64
2023/06/23 08:08:18;;;;;;;100.68;50.08;;;;;;;18.10;100.00;100683.34;7399458;19;20078;-65
2023/06/23 08:10:46;;;;;;;94.93;47.30;;;;;;;18.15;100.00;100691.94;7396824;19;20494;-65
2023/06/23 08:13:17;;;;;;;93.28;48.05;;;;;;;18.18;100.00;100689.09;7397031;19;20023;-65
2023/06/23 08:15:46;;;;;;;99.55;48.85;;;;;;;18.20;100.00;100696.06;7400007;19;20073;-66
2023/06/23 08:18:15;;;;;;;95.75;49.80;;;;;;;18.22;100.00;100688.88;7399573;19;20032;-64
2023/06/23 08:20:43;;;;;;;96.40;49.15;;;;;;;18.25;100.00;100687.84;7396658;19;20448;-64
2023/06/23 08:23:12;;;;;;;99.13;47.92;;;;;;;18.29;100.00;100701.81;7396801;19;20035;-64
2023/06/23 08:25:40;;;;;;;99.63;48.90;;;;;;;18.33;100.00;100708.66;7398962;19;20073;-64
2023/06/23 08:28:09;;;;;;;69.97;43.22;;;;;;;18.36;100.00;100706.69;7398842;19;20411;-64
2023/06/23 08:30:40;;;;;;;78.03;45.33;;;;;;;18.39;100.00;100713.63;7396673;19;20026;-65
2023/06/23 08:33:09;;;;;;;83.78;44.92;;;;;;;18.40;100.00;100715.34;7398002;19;20074;-64
2023/06/23 08:35:38;;;;;;;87.63;45.03;;;;;;;18.42;100.00;100715.28;7397843;19;20022;-64
2023/06/23 08:38:08;;;;;;;97.25;49.53;;;;;;;18.45;100.00;100712.44;7398632;19;20031;-64
2023/06/23 08:40:36;;;;;;;93.60;47.78;;;;;;;18.49;100.00;100724.63;7398688;19;20018;-64
2023/06/23 08:43:05;;;;;;;86.55;45.72;;;;;;;18.50;100.00;100721.00;7396341;19;20018;-64
2023/06/23 08:45:36;;;;;;;71.25;40.72;;;;;;;18.50;100.00;100727.19;7397085;19;20018;-65
2023/06/23 08:48:08;;;;;;;75.07;42.45;;;;;;;18.49;100.00;100727.28;7396564;19;20415;-64
2023/06/23 08:50:37;;;;;;;84.35;43.35;;;;;;;18.48;100.00;100738.84;7398253;19;20035;-64
2023/06/23 08:53:07;;;;;;;86.45;46.05;;;;;;;18.46;100.00;100741.56;7398016;19;20025;-64
2023/06/23 08:55:36;;;;;;;74.15;42.88;;;;;;;18.47;100.00;100735.31;7397834;19;20086;-64
2023/06/23 08:58:05;;;;;;;76.13;42.13;;;;;;;18.46;100.00;100743.38;7395561;19;20091;-65
2023/06/23 09:00:34;;;;;;;75.25;41.30;;;;;;;18.45;100.00;100742.53;7397325;19;20018;-63
2023/06/23 09:03:03;;;;;;;74.97;41.10;;;;;;;18.46;100.00;100751.34;7394649;19;20082;-64
2023/06/23 09:05:34;;;;;;;79.13;44.72;;;;;;;18.46;100.00;100741.56;7395654;19;20014;-64
2023/06/23 09:08:02;;;;;;;79.95;42.22;;;;;;;18.47;100.00;100737.97;7395917;19;20022;-65
2023/06/23 09:10:31;;;;;;;79.97;42.55;;;;;;;18.47;100.00;100732.66;7397132;19;20082;-64
2023/06/23 09:13:16;;;;;;;72.43;43.10;;;;;;;18.46;100.00;100736.25;7397299;19;20023;-64
2023/06/23 09:15:47;;;;;;;86.25;45.38;;;;;;;18.48;100.00;100744.16;7397130;19;20014;-65
2023/06/23 09:18:16;;;;;;;79.20;44.50;;;;;;;18.48;100.00;100752.13;7397997;19;20010;-65
2023/06/23 09:20:50;;;;;;;79.13;43.28;;;;;;;18.47;100.00;100751.25;7396752;19;20383;-64
2023/06/23 09:23:19;;;;;;;79.57;44.10;;;;;;;18.47;100.00;100753.91;7395681;19;20074;-64
2023/06/23 09:25:49;;;;;;;89.22;48.88;;;;;;;18.49;100.00;100759.16;7395505;19;20074;-65
2023/06/23 09:28:26;;;;;;;86.25;47.80;;;;;;;18.49;100.00;100767.97;7396626;19;20018;-65
2023/06/23 09:31:08;;;;;;;90.85;48.22;;;;;;;18.48;100.00;100766.25;7397339;19;20042;-64
2023/06/23 09:33:38;;;;;;;78.90;44.80;;;;;;;18.49;100.00;100777.75;7395686;19;20504;-64
2023/06/23 09:36:09;;;;;;;82.85;47.22;;;;;;;18.46;100.00;100775.25;7395279;19;20034;-64
2023/06/23 09:38:38;;;;;;;80.82;44.90;;;;;;;18.44;100.00;100763.84;7397382;19;20029;-64
2023/06/23 09:41:10;;;;;;;86.68;47.65;;;;;;;18.44;100.00;100771.81;7396694;19;20014;-64
2023/06/23 09:43:43;;;;;;;84.43;46.08;;;;;;;18.46;100.00;100767.28;7396022;19;20427;-63
2023/06/23 09:46:13;;;;;;;88.53;49.22;;;;;;;18.49;100.00;100761.81;7395106;19;20021;-63
2023/06/23 09:48:42;;;;;;;94.38;48.28;;;;;;;18.54;100.00;100778.34;7396355;19;20090;-63
2023/06/23 09:51:13;;;;;;;90.07;49.53;;;;;;;18.58;100.00;100779.03;7395934;19;20024;-63
2023/06/23 09:53:44;;;;;;;84.90;46.25;;;;;;;18.58;100.00;100784.34;7394936;19;20022;-65
2023/06/23 09:56:17;;;;;;;67.63;42.40;;;;;;;18.56;100.00;100779.97;7392023;19;20592;-63
2023/06/23 09:58:46;;;;;;;80.55;43.90;;;;;;;18.55;100.00;100785.34;7396755;19;20015;-64
2023/06/23 10:01:17;;;;;;;70.80;39.28;;;;;;;18.51;100.00;100779.38;7396853;19;20018;-63
2023/06/23 10:03:47;;;;;;;67.15;40.75;;;;;;;18.48;100.00;100784.00;7394843;19;20042;-66
2023/06/23 10:06:32;;;;;;;62.38;37.50;;;;;;;18.46;100.00;100788.53;7395396;19;20086;-64
2023/06/23 10:09:02;;;;;;;66.15;37.15;;;;;;;18.42;100.00;100790.50;7395303;19;20018;-65
2023/06/23 10:11:35;;;;;;;66.63;37.58;;;;;;;18.42;100.00;100800.25;7393949;19;20082;-64
2023/06/23 10:14:06;;;;;;;61.13;37.58;;;;;;;18.43;100.00;100802.00;7394179;19;20082;-63
2023/06/23 10:16:35;;;;;;;61.05;37.65;;;;;;;18.43;100.00;100807.31;7395582;19;20112;-64
2023/06/23 10:19:04;;;;;;;51.97;34.28;;;;;;;18.42;100.00;100808.22;7394927;19;20422;-64
2023/06/23 10:21:36;;;;;;;61.33;36.65;;;;;;;18.43;100.00;100804.66;7395151;19;20082;-64
2023/06/23 10:24:07;;;;;;;56.60;34.95;;;;;;;18.42;100.00;100808.22;7395346;19;20018;-65
2023/06/23 10:26:36;;;;;;;44.47;31.92;;;;;;;18.38;100.00;100816.34;7395479;19;20097;-64
2023/06/23 10:29:07;;;;;;;45.38;31.92;;;;;;;18.37;100.00;100814.66;7394779;19;20021;-65
2023/06/23 10:31:38;;;;;;;58.05;34.40;;;;;;;18.37;100.00;100819.97;7394638;19;20384;-64
2023/06/23 10:34:08;;;;;;;47.38;33.10;;;;;;;18.36;100.00;100817.38;7392652;19;20371;-63
2023/06/23 10:36:42;;;;;;;45.72;31.90;;;;;;;18.35;100.00;100826.28;7392455;19;20036;-64
2023/06/23 10:39:13;;;;;;;40.83;30.52;;;;;;;18.34;100.00;100822.78;7394076;19;20383;-64
2023/06/23 10:41:42;;;;;;;50.17;33.95;;;;;;;18.34;100.00;100833.41;7395133;19;20014;-64
2023/06/23 10:44:11;;;;;;;53.67;34.75;;;;;;;18.34;100.00;100829.91;7392880;19;20042;-65
2023/06/23 10:46:41;;;;;;;44.90;31.85;;;;;;;18.32;100.00;100831.75;7393048;19;20078;-65
2023/06/23 10:49:10;;;;;;;50.15;31.63;;;;;;;18.29;100.00;100837.25;7394526;19;20014;-65
2023/06/23 10:51:41;;;;;;;50.75;31.70;;;;;;;18.28;100.00;100844.34;7394799;19;20081;-63
2023/06/23 10:54:10;;;;;;;52.53;32.25;;;;;;;18.26;100.00;100848.91;7393974;19;20094;-63
2023/06/23 10:56:41;;;;;;;49.78;32.25;;;;;;;18.26;100.00;100842.69;7391552;19;20014;-64
2023/06/23 10:59:21;;;;;;;52.80;32.78;;;;;;;18.24;100.00;100850.75;7395641;19;20428;-63
2023/06/23 11:02:19;;;;;;;57.15;34.40;;;;;;;18.21;100.00;100853.56;7394446;19;20014;-64
2023/06/23 11:04:56;;;;;;;59.92;34.22;;;;;;;18.19;100.00;100852.81;7392026;19;20038;-67
2023/06/23 11:07:28;;;;;;;58.10;34.47;;;;;;;18.17;100.00;100855.53;7394574;19;20025;-67
2023/06/23 11:10:06;;;;;;;56.47;35.05;;;;;;;18.18;100.00;100856.38;7400794;19;20573;-67
2023/06/23 11:12:42;;;;;;;67.35;37.00;;;;;;;18.14;100.00;100853.03;7400881;19;20073;-67
2023/06/23 11:15:16;;;;;;;68.13;35.83;;;;;;;18.12;100.00;100844.31;7401342;19;20029;-68
2023/06/23 11:17:47;;;;;;;62.38;33.58;;;;;;;18.13;100.00;100853.13;7397991;19;20095;-67